Time;durP1;ratioP1;P1;durP2;ratioP2;P2;SDS_P1;SDS_P2;PMS_P1;PMS_P2;Temp;Humidity;BMP_temperature;BMP_pressure;BME280_temperature;BME280_humidity;BME280_pressure;Samples;Min_cycle;Max_cycle;Signal;HPM_P1;HPM_P2
2023/07/23 00:00:00;;;;;;;7.68;3.55;;;;;;;14.12;74.04;96004.16;2090916;28;20056;-55
2023/07/23 00:01:01;;;;;;;6.85;3.70;;;;;;;14.02;73.99;95994.34;2091086;28;20052;-58
2023/07/23 00:02:03;;;;;;;7.80;3.90;;;;;;;14.03;74.39;95990.81;2091134;28;20044;-59
2023/07/23 00:03:04;;;;;;;6.68;3.95;;;;;;;14.04;74.42;96002.94;2091288;28;20465;-59
2023/07/23 00:04:05;;;;;;;5.47;3.58;;;;;;;14.02;74.29;95995.19;2091396;28;20053;-58
2023/07/23 00:05:07;;;;;;;6.53;3.70;;;;;;;14.00;74.75;95996.22;2091124;28;20040;-59
2023/07/23 00:06:08;;;;;;;8.35;3.55;;;;;;;13.97;75.30;96005.06;2090753;28;20053;-59
2023/07/23 00:07:09;;;;;;;5.82;3.97;;;;;;;13.95;74.91;96003.47;2090753;28;20411;-59
2023/07/23 00:08:10;;;;;;;7.68;3.85;;;;;;;13.83;75.04;95987.63;2091399;28;20060;-59
2023/07/23 00:09:11;;;;;;;6.95;3.75;;;;;;;13.93;75.13;96002.75;2091169;28;20049;-59
2023/07/23 00:10:12;;;;;;;5.22;3.33;;;;;;;13.89;75.42;96005.53;2090610;28;20413;-59
2023/07/23 00:11:13;;;;;;;5.47;4.00;;;;;;;13.89;75.44;96010.75;2091463;28;20416;-59
2023/07/23 00:12:14;;;;;;;4.60;3.30;;;;;;;13.85;75.63;96001.44;2090994;28;20055;-58
2023/07/23 00:13:15;;;;;;;6.82;4.32;;;;;;;13.88;75.34;96003.88;2090962;28;20060;-58
2023/07/23 00:14:17;;;;;;;5.65;3.92;;;;;;;13.86;75.63;96003.09;2091330;28;20503;-59
2023/07/23 00:15:18;;;;;;;4.72;3.75;;;;;;;13.88;76.23;96006.47;2091532;28;20104;-58
2023/07/23 00:16:19;;;;;;;5.95;3.80;;;;;;;13.87;75.98;96003.94;2091205;28;20060;-59
2023/07/23 00:17:20;;;;;;;6.60;4.25;;;;;;;13.87;76.09;96001.34;2090886;28;20052;-58
2023/07/23 00:18:21;;;;;;;6.85;3.78;;;;;;;13.82;76.40;95995.53;2090836;28;20048;-59
2023/07/23 00:19:23;;;;;;;5.53;3.78;;;;;;;13.88;76.11;96003.88;2090395;28;20445;-59
2023/07/23 00:20:24;;;;;;;7.80;4.20;;;;;;;13.86;75.76;95995.28;2091131;28;20053;-59
2023/07/23 00:21:25;;;;;;;6.07;4.00;;;;;;;13.84;76.33;95996.31;2092062;28;20076;-58
2023/07/23 00:22:26;;;;;;;5.13;3.60;;;;;;;13.69;76.37;95974.59;2090932;28;20064;-58
2023/07/23 00:23:27;;;;;;;8.48;4.68;;;;;;;13.80;76.41;95997.44;2090508;28;20056;-59
2023/07/23 00:24:28;;;;;;;6.88;4.07;;;;;;;13.80;76.67;95992.22;2091210;28;20384;-59
2023/07/23 00:25:30;;;;;;;6.70;4.30;;;;;;;13.81;76.58;95996.50;2090526;28;20053;-58
2023/07/23 00:26:31;;;;;;;7.13;4.10;;;;;;;13.78;77.07;95997.50;2091310;28;20048;-56
2023/07/23 00:27:32;;;;;;;9.98;3.95;;;;;;;13.76;76.72;95994.16;2091066;28;20079;-56
2023/07/23 00:28:34;;;;;;;6.40;3.88;;;;;;;13.72;77.17;95995.28;2090780;28;20041;-55
2023/07/23 00:29:36;;;;;;;8.02;3.63;;;;;;;13.76;77.40;96001.97;2081807;28;20075;-56
2023/07/23 00:30:37;;;;;;;8.93;4.45;;;;;;;13.81;76.81;96002.53;2081929;28;20095;-56
2023/07/23 00:31:38;;;;;;;7.10;3.90;;;;;;;13.87;76.74;95998.72;2090938;28;20052;-56
2023/07/23 00:32:39;;;;;;;6.78;4.00;;;;;;;13.86;76.60;96004.88;2089565;28;20059;-56
2023/07/23 00:33:40;;;;;;;8.10;4.28;;;;;;;13.79;76.78;95999.22;2089950;28;20405;-56
2023/07/23 00:34:41;;;;;;;6.68;4.47;;;;;;;13.80;76.65;95995.66;2090043;28;20108;-56
2023/07/23 00:35:43;;;;;;;7.10;4.00;;;;;;;13.74;76.86;96006.47;2082170;28;20053;-56
2023/07/23 00:36:44;;;;;;;9.10;4.07;;;;;;;13.74;76.71;96001.25;2082300;28;20525;-56
2023/07/23 00:37:46;;;;;;;7.60;4.68;;;;;;;13.72;76.94;96002.28;2090504;28;20056;-55
2023/07/23 00:38:47;;;;;;;6.97;4.15;;;;;;;13.68;77.20;96004.19;2090428;28;20397;-56
2023/07/23 00:39:48;;;;;;;6.05;4.60;;;;;;;13.58;77.26;95992.63;2089857;28;20099;-56
2023/07/23 00:40:49;;;;;;;6.53;4.57;;;;;;;13.64;77.59;95995.72;2089926;28;20049;-57
2023/07/23 00:41:50;;;;;;;5.95;4.65;;;;;;;13.53;77.65;95990.31;2090719;28;20045;-56
2023/07/23 00:42:51;;;;;;;7.28;4.25;;;;;;;13.57;77.34;95996.19;2089269;28;20456;-56
2023/07/23 00:43:52;;;;;;;6.70;4.07;;;;;;;13.56;77.59;96002.34;2082304;28;20549;-56
2023/07/23 00:44:53;;;;;;;6.78;4.15;;;;;;;13.52;77.86;95996.44;2090298;28;20048;-56
2023/07/23 00:45:55;;;;;;;7.35;4.38;;;;;;;13.51;77.90;95994.78;2090062;28;20076;-56
2023/07/23 00:46:56;;;;;;;5.88;4.20;;;;;;;13.34;77.80;95974.03;2073706;28;20060;-56
2023/07/23 00:47:58;;;;;;;8.73;4.93;;;;;;;13.43;78.08;95997.81;2073783;28;20091;-57
2023/07/23 00:49:01;;;;;;;9.55;4.35;;;;;;;13.32;78.38;95979.38;2090062;28;20053;-56
2023/07/23 00:50:02;;;;;;;9.48;4.63;;;;;;;13.39;78.57;95996.34;2089959;28;20060;-57
2023/07/23 00:51:04;;;;;;;7.30;4.20;;;;;;;13.41;78.58;95999.69;2089413;28;20106;-57
2023/07/23 00:52:06;;;;;;;7.25;4.65;;;;;;;13.41;79.10;95999.69;2090366;28;20053;-57
2023/07/23 00:53:07;;;;;;;6.32;4.10;;;;;;;13.40;78.70;95995.41;2081970;28;20045;-56
2023/07/23 00:54:08;;;;;;;7.93;4.35;;;;;;;13.26;78.80;95977.13;2082102;28;20053;-58
2023/07/23 00:55:09;;;;;;;6.07;4.10;;;;;;;13.24;79.01;95977.16;2090017;28;20508;-57
2023/07/23 00:56:10;;;;;;;7.50;4.18;;;;;;;13.30;79.52;95991.66;2089935;28;20053;-58
2023/07/23 00:57:11;;;;;;;6.22;4.05;;;;;;;13.29;79.53;95997.81;2090075;28;20052;-58
2023/07/23 00:58:12;;;;;;;6.38;4.30;;;;;;;13.31;80.77;95993.34;2090136;28;20076;-55
2023/07/23 00:59:13;;;;;;;9.85;4.40;;;;;;;13.29;80.25;95995.19;2082177;28;20050;-58
2023/07/23 01:00:14;;;;;;;6.05;3.95;;;;;;;13.27;79.65;95994.44;2081809;28;20064;-57
2023/07/23 01:01:16;;;;;;;5.85;3.90;;;;;;;13.27;79.94;95996.22;2089997;28;20040;-57
2023/07/23 01:02:17;;;;;;;9.40;4.20;;;;;;;13.22;80.26;95991.22;2090549;28;20060;-57
2023/07/23 01:03:18;;;;;;;5.70;4.15;;;;;;;13.20;80.11;95993.06;2090322;28;20085;-57
2023/07/23 01:04:19;;;;;;;6.40;3.85;;;;;;;13.18;80.28;95987.13;2090190;28;20049;-56
2023/07/23 01:05:20;;;;;;;6.95;4.40;;;;;;;13.23;80.72;95991.16;2090874;28;20053;-58
2023/07/23 01:06:21;;;;;;;7.38;4.18;;;;;;;13.16;80.87;95981.97;2089525;28;20064;-58
2023/07/23 01:07:23;;;;;;;7.20;3.60;;;;;;;13.18;80.52;95982.75;2089883;28;20053;-57
2023/07/23 01:08:24;;;;;;;6.60;3.88;;;;;;;13.18;80.61;95981.91;2090502;28;20500;-57
2023/07/23 01:09:25;;;;;;;7.88;3.70;;;;;;;13.22;80.81;95994.66;2082071;28;20129;-57
2023/07/23 01:10:29;;;;;;;6.40;3.90;;;;;;;13.28;81.39;95992.66;2074015;28;20046;-58
2023/07/23 01:11:30;;;;;;;7.32;4.43;;;;;;;13.24;80.71;95985.00;2073881;28;20560;-57
2023/07/23 01:12:31;;;;;;;8.00;3.95;;;;;;;13.19;80.35;95981.81;2081539;28;20069;-57
2023/07/23 01:13:35;;;;;;;7.50;3.72;;;;;;;13.28;80.79;95995.28;2081945;28;20053;-57
2023/07/23 01:14:36;;;;;;;7.00;4.07;;;;;;;13.27;81.30;95991.81;2081246;28;20480;-57
2023/07/23 01:15:37;;;;;;;6.40;4.10;;;;;;;13.27;80.79;95991.81;2082206;28;20045;-57
2023/07/23 01:16:39;;;;;;;6.32;3.95;;;;;;;13.29;81.20;95995.19;2090004;28;20060;-57
2023/07/23 01:17:40;;;;;;;7.80;4.22;;;;;;;13.30;81.07;95989.03;2073337;28;20042;-57
2023/07/23 01:18:41;;;;;;;8.55;4.55;;;;;;;13.27;80.69;95988.38;2081783;28;20041;-58
2023/07/23 01:19:42;;;;;;;5.80;4.18;;;;;;;13.28;81.24;95985.66;2089263;28;20404;-57
2023/07/23 01:20:43;;;;;;;6.90;4.45;;;;;;;13.27;81.21;95988.38;2089864;28;20036;-57
2023/07/23 01:21:44;;;;;;;8.18;4.47;;;;;;;13.25;81.35;95991.03;2090515;28;20135;-57
2023/07/23 01:22:45;;;;;;;6.93;4.38;;;;;;;13.28;80.79;95987.44;2090467;28;20508;-57
2023/07/23 01:23:46;;;;;;;7.90;3.97;;;;;;;13.21;80.92;95977.34;2090283;28;20056;-57
2023/07/23 01:24:48;;;;;;;10.70;4.97;;;;;;;13.28;80.91;95987.44;2090028;28;20048;-57
2023/07/23 01:25:49;;;;;;;6.00;4.53;;;;;;;13.26;81.22;95984.94;2090715;28;20481;-57
2023/07/23 01:26:50;;;;;;;8.93;4.25;;;;;;;13.28;80.89;95990.06;2090024;28;20053;-57
2023/07/23 01:27:51;;;;;;;10.77;4.60;;;;;;;13.33;81.14;95985.41;2089737;28;20053;-57
2023/07/23 01:28:52;;;;;;;7.10;4.38;;;;;;;13.31;81.55;95982.91;2089885;28;20060;-57
2023/07/23 01:29:53;;;;;;;10.15;4.95;;;;;;;13.30;81.16;95981.22;2089499;28;20397;-57
2023/07/23 01:30:54;;;;;;;7.05;4.90;;;;;;;13.27;81.17;95973.56;2081478;28;20057;-57
2023/07/23 01:31:55;;;;;;;7.70;4.68;;;;;;;13.28;80.88;95984.84;2089816;28;20045;-57
2023/07/23 01:32:58;;;;;;;7.72;4.63;;;;;;;13.28;81.07;95977.00;2090377;28;20052;-57
2023/07/23 01:34:00;;;;;;;7.38;4.35;;;;;;;13.25;81.01;95984.03;2081365;28;20042;-57
2023/07/23 01:35:06;;;;;;;6.45;4.40;;;;;;;13.23;81.52;95975.50;2073302;28;20187;-57
2023/07/23 01:36:07;;;;;;;7.15;4.15;;;;;;;13.27;81.25;95985.78;2090081;28;20057;-57
2023/07/23 01:37:11;;;;;;;7.43;5.00;;;;;;;13.22;81.59;95979.00;2089018;28;20061;-58
2023/07/23 01:38:12;;;;;;;9.60;4.70;;;;;;;13.11;81.86;95964.94;2089070;28;20057;-57
2023/07/23 01:39:13;;;;;;;6.75;4.55;;;;;;;13.22;82.11;95980.78;2081440;28;20064;-57
2023/07/23 01:40:15;;;;;;;6.03;4.03;;;;;;;13.18;81.50;95971.47;2081498;28;20060;-57
2023/07/23 01:41:16;;;;;;;8.10;4.20;;;;;;;13.20;82.12;95973.06;2081199;28;20049;-57
2023/07/23 01:42:17;;;;;;;8.60;4.55;;;;;;;13.15;81.86;95969.03;2073326;28;20069;-57
2023/07/23 01:43:18;;;;;;;6.60;4.40;;;;;;;13.03;82.21;95953.16;2089605;28;20061;-57
2023/07/23 01:44:19;;;;;;;6.57;4.32;;;;;;;13.12;82.00;95975.25;2073175;28;20042;-58
2023/07/23 01:45:20;;;;;;;6.95;4.68;;;;;;;13.15;81.78;95966.41;2072898;28;20057;-57
2023/07/23 01:46:21;;;;;;;7.30;4.30;;;;;;;13.18;81.60;95974.09;2097798;28;20523;-57
2023/07/23 01:47:23;;;;;;;6.18;4.15;;;;;;;13.18;82.01;95976.69;2090131;28;20060;-57
2023/07/23 01:48:24;;;;;;;11.20;4.38;;;;;;;13.23;81.95;95977.25;2089307;28;20064;-57
2023/07/23 01:49:26;;;;;;;7.35;4.90;;;;;;;13.21;81.67;95971.28;2081336;28;20045;-56
2023/07/23 01:50:27;;;;;;;6.18;4.20;;;;;;;13.20;81.68;95973.06;2089736;28;20048;-57
2023/07/23 01:51:28;;;;;;;8.80;4.35;;;;;;;13.22;82.08;95968.59;2090501;28;20041;-58
2023/07/23 01:52:29;;;;;;;7.93;4.55;;;;;;;13.20;81.94;95974.81;2090120;28;20045;-57
2023/07/23 01:53:30;;;;;;;7.82;3.88;;;;;;;13.21;82.24;95968.69;2090172;28;20052;-57
2023/07/23 01:54:31;;;;;;;6.55;3.95;;;;;;;13.22;81.85;95965.16;2089857;28;20056;-57
2023/07/23 01:55:33;;;;;;;7.78;4.57;;;;;;;13.21;81.54;95968.69;2089542;28;20053;-58
2023/07/23 01:56:34;;;;;;;8.00;4.60;;;;;;;13.21;81.45;95972.13;2090206;28;20061;-57
2023/07/23 01:57:35;;;;;;;7.78;4.05;;;;;;;13.22;81.92;95967.75;2089442;28;20562;-57
2023/07/23 01:58:36;;;;;;;6.22;4.60;;;;;;;13.18;81.58;95968.88;2081335;28;20049;-57
2023/07/23 01:59:37;;;;;;;7.30;4.72;;;;;;;13.17;81.79;95975.81;2089360;28;20074;-57
2023/07/23 02:00:39;;;;;;;8.13;4.65;;;;;;;13.13;82.06;95965.69;2081081;28;20072;-57
2023/07/23 02:01:40;;;;;;;7.53;4.30;;;;;;;13.15;82.66;95969.03;2081034;28;20049;-57
2023/07/23 02:02:41;;;;;;;9.50;5.03;;;;;;;13.12;82.27;95962.22;2081223;28;20052;-57
2023/07/23 02:03:42;;;;;;;7.72;4.63;;;;;;;13.13;81.86;95968.28;2089483;28;20424;-57
2023/07/23 02:04:43;;;;;;;6.80;4.10;;;;;;;13.10;82.25;95968.47;2089826;28;20052;-57
2023/07/23 02:05:54;;;;;;;8.30;4.43;;;;;;;13.09;81.91;95967.63;2089385;28;20140;-58
2023/07/23 02:06:55;;;;;;;8.77;4.68;;;;;;;13.07;82.35;95964.28;2089700;28;20053;-57
2023/07/23 02:07:56;;;;;;;7.22;4.75;;;;;;;13.10;82.17;95963.25;2090108;28;20037;-57
2023/07/23 02:08:57;;;;;;;8.52;4.38;;;;;;;13.09;82.58;95967.63;2090039;28;20480;-57
2023/07/23 02:09:59;;;;;;;6.80;4.47;;;;;;;12.97;82.25;95947.47;2089160;28;20061;-57
2023/07/23 02:11:00;;;;;;;7.43;3.80;;;;;;;13.06;82.35;95957.38;2089509;28;20396;-57
2023/07/23 02:12:02;;;;;;;7.28;4.50;;;;;;;13.05;82.30;95960.09;2090135;28;20053;-57
2023/07/23 02:13:03;;;;;;;6.20;4.30;;;;;;;13.08;82.61;95959.91;2089416;28;20061;-57
2023/07/23 02:14:04;;;;;;;6.40;4.38;;;;;;;13.08;82.59;95960.72;2081020;28;20533;-57
2023/07/23 02:15:06;;;;;;;7.50;4.55;;;;;;;13.07;82.83;95963.41;2089632;28;20057;-57
2023/07/23 02:16:14;;;;;;;7.18;4.32;;;;;;;12.94;82.66;95948.50;2081249;28;20058;-57
2023/07/23 02:17:16;;;;;;;10.00;4.65;;;;;;;12.99;83.61;95961.25;2089211;28;20049;-57
2023/07/23 02:18:18;;;;;;;7.65;4.47;;;;;;;12.98;83.22;95964.78;2088937;28;20118;-57
2023/07/23 02:19:19;;;;;;;8.32;4.75;;;;;;;12.94;83.52;95964.13;2097116;28;20064;-57
2023/07/23 02:20:20;;;;;;;6.85;4.32;;;;;;;12.92;83.46;95954.72;2089810;28;20068;-57
2023/07/23 02:21:21;;;;;;;6.65;4.18;;;;;;;12.90;83.23;95962.63;2090156;28;20507;-57
2023/07/23 02:22:22;;;;;;;7.38;4.68;;;;;;;12.92;83.56;95957.31;2090656;28;20052;-58
2023/07/23 02:23:23;;;;;;;8.25;4.43;;;;;;;12.89;83.97;95965.31;2090386;28;20097;-58
2023/07/23 02:24:25;;;;;;;5.90;4.43;;;;;;;12.88;84.23;95968.84;2090245;28;20063;-58
2023/07/23 02:25:26;;;;;;;6.80;4.90;;;;;;;12.86;83.94;95963.72;2089040;28;20115;-57
2023/07/23 02:26:27;;;;;;;6.43;4.45;;;;;;;12.82;83.86;95963.97;2089378;28;20426;-57
2023/07/23 02:27:28;;;;;;;9.48;4.88;;;;;;;12.86;84.63;95965.50;2089973;28;20057;-57
2023/07/23 02:28:29;;;;;;;7.82;4.55;;;;;;;12.79;84.26;95965.81;2089875;28;20041;-57
2023/07/23 02:29:30;;;;;;;6.90;4.93;;;;;;;12.77;84.12;95967.69;2090107;28;20377;-57
2023/07/23 02:30:32;;;;;;;7.80;4.30;;;;;;;12.73;84.01;95960.13;2090013;28;20036;-58
2023/07/23 02:31:33;;;;;;;8.15;4.60;;;;;;;12.72;84.23;95958.44;2090807;28;20056;-57
2023/07/23 02:32:34;;;;;;;7.53;4.53;;;;;;;12.72;84.53;95963.66;2089673;28;20504;-57
2023/07/23 02:33:35;;;;;;;7.95;4.68;;;;;;;12.67;84.22;95974.34;2090259;28;20056;-57
2023/07/23 02:34:36;;;;;;;7.72;4.72;;;;;;;12.66;84.59;95967.44;2089945;28;20493;-57
2023/07/23 02:35:37;;;;;;;6.38;4.35;;;;;;;12.69;84.99;95964.66;2090406;28;20405;-57
2023/07/23 02:36:39;;;;;;;7.95;4.85;;;;;;;12.72;85.10;95966.25;2088827;28;20097;-57
2023/07/23 02:37:40;;;;;;;9.43;4.43;;;;;;;12.71;85.01;95965.41;2089139;28;20052;-57
2023/07/23 02:38:42;;;;;;;6.88;4.65;;;;;;;12.73;84.76;95968.78;2090502;28;20049;-57
2023/07/23 02:39:43;;;;;;;7.22;4.10;;;;;;;12.69;84.72;95966.44;2089826;28;20045;-57
2023/07/23 02:40:45;;;;;;;8.85;4.20;;;;;;;12.66;85.32;95970.06;2089937;28;20473;-58
2023/07/23 02:41:46;;;;;;;9.73;4.75;;;;;;;12.69;84.95;95969.03;2089674;28;20049;-57
2023/07/23 02:42:49;;;;;;;6.63;3.97;;;;;;;12.71;85.37;95968.03;2089466;28;20045;-58
2023/07/23 02:43:50;;;;;;;6.70;4.32;;;;;;;12.70;85.56;95965.53;2089088;28;20049;-57
2023/07/23 02:44:51;;;;;;;5.97;4.40;;;;;;;12.69;85.09;95969.88;2090285;28;20053;-57
2023/07/23 02:45:53;;;;;;;7.05;3.97;;;;;;;12.69;85.27;95967.28;2090017;28;20048;-57
2023/07/23 02:46:54;;;;;;;6.82;4.20;;;;;;;12.72;85.26;95972.34;2090032;28;20048;-57
2023/07/23 02:47:55;;;;;;;7.82;4.13;;;;;;;12.70;84.93;95971.56;2089837;28;20060;-58
2023/07/23 02:48:56;;;;;;;7.10;4.50;;;;;;;12.69;84.98;95969.03;2089461;28;20413;-57
2023/07/23 02:49:57;;;;;;;7.38;4.68;;;;;;;12.66;85.21;95962.22;2088791;28;20052;-57
2023/07/23 02:50:59;;;;;;;8.02;4.65;;;;;;;12.56;85.71;95950.66;2081157;28;20185;-59
2023/07/23 02:52:01;;;;;;;7.45;4.30;;;;;;;12.65;85.99;95975.38;2089513;28;20045;-57
2023/07/23 02:53:02;;;;;;;6.18;4.18;;;;;;;12.63;85.64;95975.44;2089400;28;20122;-57
2023/07/23 02:54:03;;;;;;;8.65;4.38;;;;;;;12.62;85.94;95980.75;2089212;28;20064;-57
2023/07/23 02:55:05;;;;;;;7.72;4.70;;;;;;;12.60;85.64;95969.56;2089893;28;20053;-57
2023/07/23 02:56:06;;;;;;;8.40;4.55;;;;;;;12.57;85.72;95978.38;2081060;28;20056;-57
2023/07/23 02:57:07;;;;;;;7.10;3.97;;;;;;;12.52;85.59;95976.03;2089539;28;20041;-57
2023/07/23 02:58:08;;;;;;;7.50;4.03;;;;;;;12.50;85.76;95985.69;2091324;28;20048;-57
2023/07/23 02:59:09;;;;;;;6.32;4.15;;;;;;;12.50;86.13;95979.66;2090889;28;20065;-57
2023/07/23 03:00:13;;;;;;;8.18;4.60;;;;;;;12.42;86.33;95958.38;2082876;28;20049;-56
2023/07/23 03:01:14;;;;;;;6.57;4.72;;;;;;;12.51;86.31;95978.72;2091187;28;20056;-57
2023/07/23 03:02:16;;;;;;;7.20;4.55;;;;;;;12.51;86.11;95979.56;2090666;28;20056;-57
2023/07/23 03:03:17;;;;;;;7.57;4.45;;;;;;;12.53;85.95;95975.09;2090767;28;20053;-57
2023/07/23 03:04:18;;;;;;;9.35;4.05;;;;;;;12.52;85.83;95973.44;2090609;28;20472;-57
2023/07/23 03:05:19;;;;;;;10.25;4.85;;;;;;;12.54;85.63;95976.78;2091013;28;20045;-57
2023/07/23 03:06:20;;;;;;;8.57;4.70;;;;;;;12.50;85.92;95969.22;2082640;28;20065;-57
2023/07/23 03:07:21;;;;;;;6.35;3.80;;;;;;;12.51;85.81;95970.91;2090672;28;20520;-57
2023/07/23 03:08:22;;;;;;;7.03;4.07;;;;;;;12.54;85.19;95966.38;2091454;28;20061;-57
2023/07/23 03:09:23;;;;;;;9.35;4.50;;;;;;;12.53;85.39;95969.06;2089982;28;20053;-57
2023/07/23 03:10:25;;;;;;;8.23;4.35;;;;;;;12.47;85.18;95965.03;2091329;28;20049;-57
2023/07/23 03:11:26;;;;;;;7.55;3.95;;;;;;;12.55;85.78;95968.03;2091387;28;20419;-57
2023/07/23 03:12:27;;;;;;;6.85;4.13;;;;;;;12.52;85.55;95968.22;2091037;28;20064;-57
2023/07/23 03:13:29;;;;;;;7.50;4.72;;;;;;;12.53;85.34;95976.88;2090774;28;20064;-57
2023/07/23 03:14:30;;;;;;;6.45;4.30;;;;;;;12.50;85.40;95961.41;2090590;28;20045;-57
2023/07/23 03:15:31;;;;;;;7.40;4.20;;;;;;;12.51;85.53;95969.16;2091328;28;20048;-57
2023/07/23 03:16:32;;;;;;;6.63;4.22;;;;;;;12.45;85.72;95960.81;2091408;28;20049;-57
2023/07/23 03:17:33;;;;;;;7.65;4.68;;;;;;;12.54;84.77;95961.16;2091301;28;20041;-57
2023/07/23 03:18:34;;;;;;;5.32;4.20;;;;;;;12.52;84.87;95968.22;2090153;28;20060;-57
2023/07/23 03:19:35;;;;;;;7.82;4.20;;;;;;;12.56;85.17;95967.13;2090674;28;20551;-57
2023/07/23 03:20:37;;;;;;;6.15;4.55;;;;;;;12.53;84.81;95964.66;2090585;28;20060;-57
2023/07/23 03:21:38;;;;;;;6.50;4.18;;;;;;;12.53;85.57;95962.06;2082628;28;20516;-57
2023/07/23 03:22:39;;;;;;;7.30;4.55;;;;;;;12.56;85.64;95966.28;2090415;28;20049;-57
2023/07/23 03:23:40;;;;;;;11.32;4.30;;;;;;;12.42;85.65;95953.19;2091247;28;20053;-57
2023/07/23 03:24:41;;;;;;;8.85;4.70;;;;;;;12.48;85.32;95960.66;2091416;28;20032;-57
2023/07/23 03:25:43;;;;;;;7.80;3.92;;;;;;;12.49;85.51;95970.16;2090671;28;20044;-57
2023/07/23 03:26:44;;;;;;;7.40;4.60;;;;;;;12.45;85.74;95961.66;2090522;28;20049;-57
2023/07/23 03:27:45;;;;;;;8.95;4.85;;;;;;;12.43;85.31;95963.53;2091306;28;20059;-57
2023/07/23 03:28:46;;;;;;;6.90;3.85;;;;;;;12.42;85.50;95958.38;2091482;28;20366;-57
2023/07/23 03:29:48;;;;;;;6.95;4.88;;;;;;;12.46;85.60;95965.97;2090727;28;20036;-57
2023/07/23 03:30:49;;;;;;;7.53;4.10;;;;;;;12.43;85.46;95960.06;2082382;28;20045;-57
2023/07/23 03:31:50;;;;;;;6.18;3.60;;;;;;;12.40;85.89;95955.84;2091015;28;20489;-57
2023/07/23 03:32:52;;;;;;;7.85;4.05;;;;;;;12.36;85.61;95955.19;2082530;28;20053;-57
2023/07/23 03:33:53;;;;;;;6.20;4.45;;;;;;;12.40;85.67;95955.84;2090291;28;20048;-57
2023/07/23 03:34:54;;;;;;;10.50;4.25;;;;;;;12.44;85.25;95954.78;2091136;28;20481;-57
2023/07/23 03:35:55;;;;;;;7.70;4.13;;;;;;;12.43;85.64;95955.72;2091764;28;20069;-57
2023/07/23 03:36:56;;;;;;;6.00;3.97;;;;;;;12.44;85.54;95957.38;2091432;28;20052;-57
2023/07/23 03:37:58;;;;;;;10.68;4.50;;;;;;;12.46;85.45;95952.09;2091203;28;20420;-57
2023/07/23 03:38:59;;;;;;;7.63;4.07;;;;;;;12.45;85.59;95953.84;2090793;28;20044;-57
2023/07/23 03:40:00;;;;;;;8.65;4.30;;;;;;;12.45;85.46;95959.06;2090515;28;20053;-57
2023/07/23 03:41:01;;;;;;;8.82;4.25;;;;;;;12.46;84.96;95952.09;2090807;28;20061;-57
2023/07/23 03:42:02;;;;;;;6.22;4.38;;;;;;;12.44;85.07;95948.72;2082034;28;20107;-57
2023/07/23 03:43:03;;;;;;;7.78;4.13;;;;;;;12.45;84.82;95955.63;2090246;28;20072;-57
2023/07/23 03:44:04;;;;;;;7.32;4.80;;;;;;;12.44;84.69;95949.56;2091254;28;20096;-57
2023/07/23 03:45:06;;;;;;;10.27;4.97;;;;;;;12.46;84.82;95950.34;2091087;28;20056;-57
2023/07/23 03:46:08;;;;;;;6.43;4.15;;;;;;;12.43;85.00;95949.63;2091091;28;20128;-57
2023/07/23 03:47:10;;;;;;;7.13;4.53;;;;;;;12.42;85.30;95955.78;2090308;28;20477;-57
2023/07/23 03:48:11;;;;;;;9.45;4.63;;;;;;;12.42;85.25;95948.81;2090849;28;20053;-57
2023/07/23 03:49:12;;;;;;;9.45;4.45;;;;;;;12.43;84.77;95947.91;2091005;28;20068;-57
2023/07/23 03:50:14;;;;;;;8.43;3.95;;;;;;;12.48;85.23;95945.88;2090250;28;20060;-57
2023/07/23 03:51:15;;;;;;;5.90;4.03;;;;;;;12.45;85.48;95951.25;2082368;28;20060;-57
2023/07/23 03:52:16;;;;;;;7.47;4.00;;;;;;;12.45;84.75;95946.03;2090442;28;20132;-57
2023/07/23 03:53:17;;;;;;;8.02;4.63;;;;;;;12.45;85.12;95945.19;2090369;28;20048;-57
2023/07/23 03:54:18;;;;;;;6.97;4.25;;;;;;;12.44;84.75;95949.56;2090973;28;20057;-57
2023/07/23 03:55:20;;;;;;;8.07;4.32;;;;;;;12.45;85.13;95943.44;2090773;28;20053;-57
2023/07/23 03:56:21;;;;;;;7.88;4.22;;;;;;;12.44;84.83;95952.19;2091251;28;20051;-57
2023/07/23 03:57:22;;;;;;;7.65;4.80;;;;;;;12.51;84.54;95952.66;2090819;28;20064;-57
2023/07/23 03:58:23;;;;;;;6.78;4.13;;;;;;;12.51;83.92;95952.66;2090071;28;20064;-57
2023/07/23 03:59:50;;;;;;;6.15;4.13;;;;;;;12.53;83.66;95949.03;2090863;28;20056;-57
2023/07/23 04:00:51;;;;;;;6.50;3.70;;;;;;;12.56;83.54;95953.25;2088641;28;20057;-57
2023/07/23 04:01:52;;;;;;;6.65;4.35;;;;;;;12.57;83.40;95958.38;2082169;28;20045;-57
2023/07/23 04:02:54;;;;;;;6.63;4.20;;;;;;;12.59;83.06;95950.50;2090564;28;20045;-57
2023/07/23 04:03:55;;;;;;;5.95;3.90;;;;;;;12.58;83.41;95957.44;2090990;28;20056;-57
2023/07/23 04:04:56;;;;;;;8.30;3.55;;;;;;;12.62;83.60;95952.09;2091181;28;20392;-57
2023/07/23 04:05:57;;;;;;;7.88;4.10;;;;;;;12.62;83.75;95958.13;2090314;28;20045;-57
2023/07/23 04:06:58;;;;;;;8.73;4.68;;;;;;;12.64;83.96;95964.06;2090288;28;20373;-57
2023/07/23 04:07:59;;;;;;;7.20;4.40;;;;;;;12.58;82.84;95948.81;2091293;28;20060;-57
2023/07/23 04:09:00;;;;;;;5.38;3.97;;;;;;;12.64;82.68;95953.66;2089492;28;20052;-57
2023/07/23 04:10:03;;;;;;;6.60;4.18;;;;;;;12.66;82.97;95954.41;2081670;28;20064;-57
2023/07/23 04:11:04;;;;;;;7.40;4.47;;;;;;;12.65;82.38;95951.91;2090113;28;20056;-57
2023/07/23 04:12:06;;;;;;;9.93;4.00;;;;;;;12.66;82.60;95953.59;2090983;28;20040;-56
2023/07/23 04:13:07;;;;;;;5.88;4.30;;;;;;;12.67;82.14;95952.66;2091111;28;20092;-57
2023/07/23 04:14:08;;;;;;;6.60;4.30;;;;;;;12.69;82.16;95956.84;2090985;28;20045;-57
2023/07/23 04:15:10;;;;;;;6.13;3.78;;;;;;;12.70;81.55;95950.72;2090890;28;20041;-57
2023/07/23 04:16:11;;;;;;;5.78;3.90;;;;;;;12.72;82.18;95959.31;2090582;28;20057;-57
2023/07/23 04:17:12;;;;;;;6.68;4.15;;;;;;;12.77;81.69;95953.81;2090538;28;20408;-57
2023/07/23 04:18:17;;;;;;;6.00;4.20;;;;;;;12.82;81.65;95950.97;2090878;28;20060;-57
2023/07/23 04:19:18;;;;;;;6.35;4.47;;;;;;;12.82;82.13;95958.78;2091507;28;20148;-57
2023/07/23 04:20:19;;;;;;;8.68;4.25;;;;;;;12.79;81.51;95959.78;2090910;28;20057;-57
2023/07/23 04:21:23;;;;;;;8.13;4.50;;;;;;;12.75;81.19;95945.22;2090955;28;20045;-57
2023/07/23 04:22:24;;;;;;;7.40;4.55;;;;;;;12.81;81.64;95952.72;2091040;28;20048;-57
2023/07/23 04:23:25;;;;;;;9.68;4.57;;;;;;;12.85;81.09;95956.81;2090131;28;20405;-57
2023/07/23 04:24:26;;;;;;;6.10;4.18;;;;;;;12.87;81.79;95962.78;2090421;28;20048;-57
2023/07/23 04:25:28;;;;;;;8.10;3.90;;;;;;;12.88;80.93;95959.25;2091039;28;20045;-57
2023/07/23 04:26:29;;;;;;;6.55;3.70;;;;;;;12.85;80.58;95949.00;2090197;28;20045;-57
2023/07/23 04:27:30;;;;;;;7.00;4.22;;;;;;;12.92;80.68;95949.50;2082294;28;20060;-56
2023/07/23 04:28:31;;;;;;;8.45;4.22;;;;;;;12.94;80.45;95956.31;2090644;28;20064;-57
2023/07/23 04:29:32;;;;;;;6.32;4.30;;;;;;;12.98;80.80;95954.38;2090813;28;20495;-57
2023/07/23 04:30:34;;;;;;;8.77;4.22;;;;;;;12.99;80.67;95954.28;2090209;28;20440;-57
2023/07/23 04:31:35;;;;;;;5.95;4.00;;;;;;;13.02;80.47;95956.72;2089703;28;20067;-61
2023/07/23 04:32:36;;;;;;;6.13;3.97;;;;;;;13.06;80.36;95953.94;2090518;28;20048;-61
2023/07/23 04:33:37;;;;;;;8.05;3.97;;;;;;;13.11;80.77;95946.69;2089980;28;20044;-61
2023/07/23 04:34:39;;;;;;;6.90;4.55;;;;;;;13.15;80.15;95958.59;2090111;28;20517;-61
2023/07/23 04:35:40;;;;;;;7.28;4.32;;;;;;;13.17;79.65;95960.19;2090814;28;20041;-61
2023/07/23 04:36:41;;;;;;;5.13;3.67;;;;;;;13.19;79.49;95957.50;2090948;28;20049;-61
2023/07/23 04:37:42;;;;;;;8.32;3.72;;;;;;;13.22;79.84;95957.31;2090559;28;20064;-61
2023/07/23 04:38:43;;;;;;;6.00;3.95;;;;;;;13.29;79.68;95958.69;2090457;28;20052;-61
2023/07/23 04:39:44;;;;;;;5.65;4.05;;;;;;;13.31;79.86;95954.22;2090230;28;20100;-61
2023/07/23 04:40:48;;;;;;;8.27;3.85;;;;;;;13.35;79.54;95953.09;2090390;28;20048;-61
2023/07/23 04:41:49;;;;;;;5.90;4.00;;;;;;;13.38;79.10;95958.13;2089845;28;20049;-61
2023/07/23 04:42:51;;;;;;;8.00;3.88;;;;;;;13.39;78.80;95944.19;2090074;28;20048;-61
2023/07/23 04:43:52;;;;;;;5.65;3.63;;;;;;;13.42;78.39;95954.44;2090742;28;20077;-61
2023/07/23 04:44:53;;;;;;;7.22;3.72;;;;;;;13.46;78.53;95952.47;2090841;28;20045;-60
2023/07/23 04:45:54;;;;;;;6.90;4.18;;;;;;;13.51;78.27;95958.25;2090375;28;20374;-60
2023/07/23 04:46:55;;;;;;;7.70;3.80;;;;;;;13.55;78.24;95956.28;2090670;28;20057;-59
2023/07/23 04:47:56;;;;;;;6.32;3.70;;;;;;;13.59;78.05;95960.41;2090712;28;20044;-61
2023/07/23 04:48:57;;;;;;;7.20;4.47;;;;;;;13.61;77.57;95953.34;2090879;28;20470;-61